Time;durP1;ratioP1;P1;durP2;ratioP2;P2;SDS_P1;SDS_P2;PMS_P1;PMS_P2;Temp;Humidity;BMP_temperature;BMP_pressure;BME280_temperature;BME280_humidity;BME280_pressure;Samples;Min_cycle;Max_cycle;Signal;HPM_P1;HPM_P2
2023/07/13 00:00:22;;;;;;;2.17;2.08;;;;;;;;;;2100067;28;20032;-61
2023/07/13 00:01:41;;;;;;;2.47;2.10;;;;;;;;;;2099205;28;20056;-61
2023/07/13 00:03:00;;;;;;;2.50;2.38;;;;;;;;;;2098332;28;20032;-61
2023/07/13 00:04:20;;;;;;;1.88;1.77;;;;;;;;;;2099428;28;20044;-61
2023/07/13 00:05:41;;;;;;;2.50;2.30;;;;;;;;;;2100410;28;20115;-61
2023/07/13 00:07:00;;;;;;;2.50;2.30;;;;;;;;;;2098316;28;20032;-61
2023/07/13 00:08:18;;;;;;;1.85;1.75;;;;;;;;;;2099219;28;20041;-61
2023/07/13 00:09:37;;;;;;;2.53;2.08;;;;;;;;;;2101415;28;20446;-60
2023/07/13 00:10:56;;;;;;;3.17;2.22;;;;;;;;;;2098768;28;20040;-59
2023/07/13 00:12:23;;;;;;;3.28;2.33;;;;;;;;;;2099121;28;20044;-61
2023/07/13 00:13:42;;;;;;;2.08;1.98;;;;;;;;;;2100922;28;20485;-61
2023/07/13 00:15:13;;;;;;;2.58;2.38;;;;;;;;;;2098717;28;20115;-62
2023/07/13 00:16:33;;;;;;;2.42;2.22;;;;;;;;;;2098491;28;20465;-61
2023/07/13 00:17:53;;;;;;;2.25;2.15;;;;;;;;;;2099389;28;20034;-62
2023/07/13 00:19:12;;;;;;;1.73;1.63;;;;;;;;;;2099551;28;20389;-62
2023/07/13 00:20:32;;;;;;;2.20;2.10;;;;;;;;;;2097643;28;20481;-61
2023/07/13 00:21:55;;;;;;;2.47;2.28;;;;;;;;;;2100790;28;20405;-61
2023/07/13 00:23:15;;;;;;;5.43;2.75;;;;;;;;;;2099952;28;20041;-61
2023/07/13 00:24:35;;;;;;;3.83;2.50;;;;;;;;;;2099053;28;20442;-62
2023/07/13 00:25:56;;;;;;;2.30;2.20;;;;;;;;;;2099248;28;20032;-61
2023/07/13 00:27:17;;;;;;;9.20;2.78;;;;;;;;;;2088700;28;20437;-62
2023/07/13 00:28:36;;;;;;;2.28;2.17;;;;;;;;;;2096107;28;20028;-61
2023/07/13 00:29:55;;;;;;;1.80;1.70;;;;;;;;;;2101763;28;20024;-61
2023/07/13 00:31:15;;;;;;;2.45;2.25;;;;;;;;;;2088803;28;20063;-61
2023/07/13 00:32:35;;;;;;;2.00;1.90;;;;;;;;;;2095381;28;20028;-61
2023/07/13 00:33:54;;;;;;;2.00;1.90;;;;;;;;;;2098552;28;20386;-61
2023/07/13 00:35:14;;;;;;;1.98;1.88;;;;;;;;;;2098670;28;20036;-61
2023/07/13 00:36:33;;;;;;;2.30;2.20;;;;;;;;;;2098254;28;20025;-61
2023/07/13 00:37:52;;;;;;;2.03;1.92;;;;;;;;;;2100207;28;20028;-61
2023/07/13 00:39:10;;;;;;;2.33;2.13;;;;;;;;;;2101671;28;20028;-61
2023/07/13 00:40:29;;;;;;;2.97;2.10;;;;;;;;;;2100228;28;20033;-61
2023/07/13 00:41:49;;;;;;;1.90;1.80;;;;;;;;;;2099093;28;20404;-61
2023/07/13 00:43:18;;;;;;;1.92;1.83;;;;;;;;;;2100678;28;20100;-61
2023/07/13 00:44:39;;;;;;;1.85;1.75;;;;;;;;;;2100161;28;20040;-61
2023/07/13 00:45:58;;;;;;;2.03;1.83;;;;;;;;;;2101448;28;20036;-60
2023/07/13 00:47:17;;;;;;;2.17;1.98;;;;;;;;;;2100243;28;20024;-61
2023/07/13 00:48:37;;;;;;;1.85;1.75;;;;;;;;;;2097405;28;20405;-61
2023/07/13 00:49:56;;;;;;;1.83;1.73;;;;;;;;;;2096349;28;20036;-61
2023/07/13 00:51:20;;;;;;;2.15;1.80;;;;;;;;;;2101246;28;20029;-61
2023/07/13 00:52:41;;;;;;;2.13;1.92;;;;;;;;;;2097551;28;20389;-61
2023/07/13 00:54:03;;;;;;;2.60;2.38;;;;;;;;;;2101557;28;20028;-61
2023/07/13 00:55:22;;;;;;;2.40;2.25;;;;;;;;;;2098288;28;20036;-61
2023/07/13 00:56:43;;;;;;;2.00;1.83;;;;;;;;;;2098662;28;20041;-61
2023/07/13 00:58:04;;;;;;;3.55;2.13;;;;;;;;;;2098371;28;20012;-61
2023/07/13 00:59:23;;;;;;;2.42;2.30;;;;;;;;;;2097752;28;20020;-61
2023/07/13 01:00:44;;;;;;;2.17;2.00;;;;;;;;;;2098918;28;20052;-61
2023/07/13 01:02:03;;;;;;;2.00;1.90;;;;;;;;;;2095927;28;20041;-61
2023/07/13 01:03:23;;;;;;;2.00;1.90;;;;;;;;;;2096665;28;20397;-61
2023/07/13 01:04:43;;;;;;;2.10;2.00;;;;;;;;;;2095266;28;20037;-61
2023/07/13 01:06:03;;;;;;;2.38;2.15;;;;;;;;;;2095276;28;20107;-61
2023/07/13 01:07:23;;;;;;;2.03;1.92;;;;;;;;;;2097366;28;20498;-61
2023/07/13 01:08:42;;;;;;;2.35;2.15;;;;;;;;;;2095842;28;20036;-62
2023/07/13 01:10:01;;;;;;;1.90;1.80;;;;;;;;;;2098089;28;20027;-62
2023/07/13 01:11:21;;;;;;;1.80;1.70;;;;;;;;;;2097761;28;20040;-62
2023/07/13 01:12:41;;;;;;;2.28;2.08;;;;;;;;;;2098122;28;20389;-61
2023/07/13 01:14:01;;;;;;;1.80;1.70;;;;;;;;;;2098083;28;20392;-62
2023/07/13 01:15:39;;;;;;;3.50;1.95;;;;;;;;;;2093689;28;20028;-61
2023/07/13 01:17:00;;;;;;;1.98;1.88;;;;;;;;;;2097897;28;20099;-62
2023/07/13 01:18:20;;;;;;;1.90;1.80;;;;;;;;;;2098274;28;20059;-61
2023/07/13 01:19:44;;;;;;;1.83;1.73;;;;;;;;;;2101335;28;20020;-61
2023/07/13 01:21:04;;;;;;;2.15;2.03;;;;;;;;;;2096867;28;20384;-61
2023/07/13 01:22:25;;;;;;;4.35;2.20;;;;;;;;;;2096835;28;20028;-61
2023/07/13 01:23:44;;;;;;;4.15;2.47;;;;;;;;;;2100332;28;20497;-61
2023/07/13 01:25:04;;;;;;;2.38;2.17;;;;;;;;;;2094714;28;20405;-61
2023/07/13 01:26:23;;;;;;;2.80;2.20;;;;;;;;;;2097728;28;20454;-62
2023/07/13 01:27:41;;;;;;;3.50;1.88;;;;;;;;;;2098676;28;21373;-62
2023/07/13 01:29:01;;;;;;;1.70;1.60;;;;;;;;;;2096692;28;20024;-61
2023/07/13 01:30:20;;;;;;;2.35;2.15;;;;;;;;;;2097478;28;20072;-61
2023/07/13 01:31:39;;;;;;;2.05;1.80;;;;;;;;;;2097188;28;20492;-62
2023/07/13 01:32:58;;;;;;;3.13;2.17;;;;;;;;;;2097680;28;20036;-62
2023/07/13 01:34:17;;;;;;;1.73;1.63;;;;;;;;;;2097916;28;20393;-61
2023/07/13 01:35:36;;;;;;;1.70;1.60;;;;;;;;;;2099433;28;20029;-62
2023/07/13 01:36:55;;;;;;;2.40;1.98;;;;;;;;;;2097836;28;20024;-62
2023/07/13 01:38:15;;;;;;;3.03;2.13;;;;;;;;;;2086375;28;20812;-62
2023/07/13 01:39:34;;;;;;;3.53;2.20;;;;;;;;;;2092623;28;20435;-61
2023/07/13 01:40:53;;;;;;;6.35;2.00;;;;;;;;;;2095359;28;20025;-62
2023/07/13 01:42:13;;;;;;;2.50;2.30;;;;;;;;;;2097325;28;20016;-62
2023/07/13 01:43:32;;;;;;;1.95;1.85;;;;;;;;;;2098679;28;20037;-62
2023/07/13 01:44:51;;;;;;;3.92;1.90;;;;;;;;;;2095323;28;20116;-61
2023/07/13 01:46:10;;;;;;;3.00;1.83;;;;;;;;;;2097581;28;20032;-63
2023/07/13 01:47:30;;;;;;;2.83;2.63;;;;;;;;;;2097874;28;20032;-62
2023/07/13 01:48:49;;;;;;;2.22;2.13;;;;;;;;;;2093587;28;20517;-61
2023/07/13 01:50:09;;;;;;;3.15;2.10;;;;;;;;;;2096206;28;20028;-62
2023/07/13 01:51:28;;;;;;;2.30;2.20;;;;;;;;;;2100088;28;20021;-61
2023/07/13 01:52:47;;;;;;;2.60;2.30;;;;;;;;;;2095996;28;20621;-62
2023/07/13 01:54:06;;;;;;;2.38;2.17;;;;;;;;;;2099472;28;20066;-62
2023/07/13 01:55:25;;;;;;;2.97;2.53;;;;;;;;;;2098081;28;20393;-61
2023/07/13 01:56:44;;;;;;;2.53;2.33;;;;;;;;;;2095668;28;20029;-62
2023/07/13 01:58:03;;;;;;;1.95;1.85;;;;;;;;;;2097841;28;20020;-62
2023/07/13 01:59:22;;;;;;;2.55;2.30;;;;;;;;;;2093848;28;20029;-62
2023/07/13 02:00:41;;;;;;;3.08;2.20;;;;;;;;;;2096394;28;20049;-61
2023/07/13 02:02:00;;;;;;;2.22;2.13;;;;;;;;;;2095296;28;20478;-61
2023/07/13 02:03:19;;;;;;;5.13;2.40;;;;;;;;;;2095506;28;20119;-62
2023/07/13 02:04:38;;;;;;;2.75;2.55;;;;;;;;;;2096510;28;20139;-61
2023/07/13 02:05:58;;;;;;;2.40;2.20;;;;;;;;;;2086056;28;20111;-62
2023/07/13 02:07:16;;;;;;;4.93;2.20;;;;;;;;;;2090834;28;20036;-61
2023/07/13 02:08:37;;;;;;;2.20;2.10;;;;;;;;;;2097393;28;20067;-61
2023/07/13 02:09:56;;;;;;;2.65;2.45;;;;;;;;;;2101603;28;20028;-61
2023/07/13 02:11:15;;;;;;;3.25;2.10;;;;;;;;;;2096624;28;20032;-62
2023/07/13 02:12:34;;;;;;;2.78;2.58;;;;;;;;;;2097376;28;20374;-61
2023/07/13 02:13:53;;;;;;;2.63;2.35;;;;;;;;;;2099592;28;20021;-61
2023/07/13 02:15:12;;;;;;;3.42;2.45;;;;;;;;;;2099793;28;20025;-61
2023/07/13 02:16:31;;;;;;;3.30;2.35;;;;;;;;;;2098914;28;20778;-62
2023/07/13 02:17:50;;;;;;;2.78;2.50;;;;;;;;;;2099857;28;20032;-61
2023/07/13 02:19:09;;;;;;;3.33;2.63;;;;;;;;;;2095327;28;20017;-62
2023/07/13 02:20:28;;;;;;;3.55;2.53;;;;;;;;;;2096264;28;20401;-63
2023/07/13 02:21:47;;;;;;;3.75;2.67;;;;;;;;;;2096217;28;20450;-62
2023/07/13 02:23:06;;;;;;;3.97;2.63;;;;;;;;;;2098226;28;20025;-61
2023/07/13 02:24:25;;;;;;;2.97;2.42;;;;;;;;;;2094776;28;20539;-62
2023/07/13 02:25:45;;;;;;;3.53;2.60;;;;;;;;;;2097790;28;20024;-61
2023/07/13 02:27:04;;;;;;;3.08;2.53;;;;;;;;;;2099517;28;20103;-61
2023/07/13 02:28:24;;;;;;;2.58;2.25;;;;;;;;;;2099386;28;20120;-61
2023/07/13 02:29:42;;;;;;;3.00;2.72;;;;;;;;;;2101362;28;20119;-61
2023/07/13 02:31:09;;;;;;;2.83;2.63;;;;;;;;;;2100139;28;20078;-62
2023/07/13 02:32:28;;;;;;;4.45;2.80;;;;;;;;;;2099182;28;20032;-62
2023/07/13 02:33:47;;;;;;;2.63;2.42;;;;;;;;;;2100154;28;20016;-62
2023/07/13 02:35:06;;;;;;;3.42;2.92;;;;;;;;;;2101117;28;20029;-61
2023/07/13 02:36:25;;;;;;;2.63;2.42;;;;;;;;;;2099116;28;20405;-62
2023/07/13 02:37:44;;;;;;;4.97;2.40;;;;;;;;;;2101265;28;20381;-62
2023/07/13 02:39:03;;;;;;;3.25;2.40;;;;;;;;;;2102472;28;20067;-61
2023/07/13 02:40:22;;;;;;;3.50;2.30;;;;;;;;;;2101254;28;20454;-62
2023/07/13 02:41:41;;;;;;;2.60;2.22;;;;;;;;;;2098011;28;20029;-63
2023/07/13 02:43:01;;;;;;;3.88;2.50;;;;;;;;;;2097945;28;20028;-61
2023/07/13 02:44:20;;;;;;;5.80;2.60;;;;;;;;;;2099159;28;20040;-62
2023/07/13 02:45:43;;;;;;;3.00;2.20;;;;;;;;;;2099722;28;20496;-62
2023/07/13 02:47:02;;;;;;;3.15;2.38;;;;;;;;;;2097467;28;20044;-61
2023/07/13 02:48:21;;;;;;;3.17;2.88;;;;;;;;;;2098810;28;20032;-62
2023/07/13 02:49:40;;;;;;;3.00;2.80;;;;;;;;;;2098971;28;20036;-63
2023/07/13 02:50:59;;;;;;;2.35;2.20;;;;;;;;;;2098148;28;20481;-63
2023/07/13 02:52:18;;;;;;;3.60;2.83;;;;;;;;;;2097199;28;20056;-62
2023/07/13 02:53:37;;;;;;;2.58;2.38;;;;;;;;;;2097451;28;20405;-62
2023/07/13 02:54:56;;;;;;;3.30;2.60;;;;;;;;;;2097638;28;20060;-61
2023/07/13 02:56:15;;;;;;;3.25;2.50;;;;;;;;;;2097704;28;20394;-62
2023/07/13 02:57:34;;;;;;;3.40;2.70;;;;;;;;;;2098749;28;20025;-65
2023/07/13 02:58:54;;;;;;;4.95;3.15;;;;;;;;;;2095847;28;20029;-62
2023/07/13 03:00:16;;;;;;;2.80;2.60;;;;;;;;;;2095591;28;20478;-61
2023/07/13 03:01:35;;;;;;;4.10;2.30;;;;;;;;;;2097673;28;20040;-61
2023/07/13 03:02:57;;;;;;;2.45;2.17;;;;;;;;;;2097875;28;20029;-61
2023/07/13 03:04:19;;;;;;;2.20;2.10;;;;;;;;;;2098060;28;20034;-62
2023/07/13 03:05:40;;;;;;;3.05;2.83;;;;;;;;;;2098262;28;20021;-62
2023/07/13 03:06:59;;;;;;;6.38;2.88;;;;;;;;;;2096009;28;20028;-62
2023/07/13 03:08:18;;;;;;;3.40;2.83;;;;;;;;;;2097187;28;20024;-64
2023/07/13 03:09:37;;;;;;;2.65;2.45;;;;;;;;;;2098957;28;20385;-62
2023/07/13 03:11:04;;;;;;;3.22;2.92;;;;;;;;;;2096700;28;20032;-62
2023/07/13 03:12:24;;;;;;;2.97;2.70;;;;;;;;;;2094974;28;20628;-62
2023/07/13 03:13:43;;;;;;;2.90;2.70;;;;;;;;;;2097970;28;20107;-63
2023/07/13 03:15:02;;;;;;;2.80;2.60;;;;;;;;;;2097616;28;20021;-62
2023/07/13 03:16:21;;;;;;;2.53;2.33;;;;;;;;;;2097543;28;20029;-62
2023/07/13 03:17:40;;;;;;;3.20;2.85;;;;;;;;;;2098093;28;20024;-61
2023/07/13 03:18:59;;;;;;;2.85;2.65;;;;;;;;;;2099206;28;20024;-61
2023/07/13 03:20:18;;;;;;;3.25;2.95;;;;;;;;;;2096851;28;20036;-61
2023/07/13 03:21:37;;;;;;;2.70;2.50;;;;;;;;;;2097772;28;20065;-61
2023/07/13 03:22:56;;;;;;;3.17;2.97;;;;;;;;;;2096957;28;20493;-62
2023/07/13 03:24:15;;;;;;;4.15;2.60;;;;;;;;;;2095917;28;20032;-61
2023/07/13 03:25:34;;;;;;;4.72;2.35;;;;;;;;;;2097985;28;20104;-62
2023/07/13 03:26:53;;;;;;;3.80;2.97;;;;;;;;;;2097281;28;20111;-61
2023/07/13 03:28:12;;;;;;;2.55;2.42;;;;;;;;;;2094912;28;20119;-61
2023/07/13 03:29:31;;;;;;;3.28;2.28;;;;;;;;;;2094818;28;20024;-61
2023/07/13 03:30:58;;;;;;;5.95;2.80;;;;;;;;;;2097421;28;20017;-61
2023/07/13 03:32:17;;;;;;;2.67;2.42;;;;;;;;;;2097560;28;20028;-61
2023/07/13 03:33:37;;;;;;;2.67;2.47;;;;;;;;;;2098996;28;20028;-61
2023/07/13 03:34:56;;;;;;;2.80;2.50;;;;;;;;;;2098493;28;20163;-61
2023/07/13 03:36:20;;;;;;;4.25;2.55;;;;;;;;;;2094670;28;20029;-62
2023/07/13 03:37:42;;;;;;;2.90;2.58;;;;;;;;;;2100058;28;20053;-61
2023/07/13 03:39:01;;;;;;;5.18;2.58;;;;;;;;;;2098681;28;20071;-61
2023/07/13 03:40:21;;;;;;;5.50;2.70;;;;;;;;;;2098295;28;20063;-61
2023/07/13 03:41:40;;;;;;;4.40;3.05;;;;;;;;;;2098241;28;20037;-61
2023/07/13 03:42:58;;;;;;;3.47;2.85;;;;;;;;;;2097722;28;20706;-61
2023/07/13 03:44:17;;;;;;;3.47;2.75;;;;;;;;;;2098207;28;20063;-61
2023/07/13 03:45:39;;;;;;;4.05;2.92;;;;;;;;;;2095831;28;20025;-62
2023/07/13 03:46:58;;;;;;;3.03;2.83;;;;;;;;;;2096779;28;20040;-62
2023/07/13 03:48:17;;;;;;;2.75;2.50;;;;;;;;;;2096363;28;20119;-61
2023/07/13 03:49:36;;;;;;;4.82;3.13;;;;;;;;;;2098362;28;20024;-61
2023/07/13 03:50:55;;;;;;;3.15;2.95;;;;;;;;;;2097075;28;20112;-62
2023/07/13 03:52:14;;;;;;;3.08;2.67;;;;;;;;;;2098355;28;20024;-61
2023/07/13 03:53:33;;;;;;;3.45;2.42;;;;;;;;;;2097577;28;20024;-61
2023/07/13 03:54:52;;;;;;;3.63;3.08;;;;;;;;;;2098148;28;20484;-61
2023/07/13 03:56:11;;;;;;;2.60;2.50;;;;;;;;;;2097795;28;20039;-61
2023/07/13 03:57:30;;;;;;;2.85;2.50;;;;;;;;;;2095501;28;20016;-61
2023/07/13 03:58:50;;;;;;;4.70;2.65;;;;;;;;;;2094481;28;20507;-61
2023/07/13 04:00:10;;;;;;;3.85;3.15;;;;;;;;;;2098286;28;20012;-61
2023/07/13 04:01:29;;;;;;;4.78;3.10;;;;;;;;;;2095582;28;20131;-61
2023/07/13 04:02:49;;;;;;;4.05;2.92;;;;;;;;;;2097632;28;20020;-61
2023/07/13 04:04:08;;;;;;;4.30;3.08;;;;;;;;;;2096974;28;20048;-61
2023/07/13 04:05:27;;;;;;;4.50;3.45;;;;;;;;;;2097480;28;20393;-61
2023/07/13 04:06:46;;;;;;;3.83;2.55;;;;;;;;;;2094229;28;20485;-64
2023/07/13 04:08:05;;;;;;;4.75;3.10;;;;;;;;;;2096771;28;20029;-61
2023/07/13 04:09:24;;;;;;;4.20;3.30;;;;;;;;;;2097793;28;20142;-61
2023/07/13 04:10:44;;;;;;;5.25;2.90;;;;;;;;;;2099718;28;20029;-61
2023/07/13 04:12:03;;;;;;;4.07;3.08;;;;;;;;;;2097250;28;20420;-61
2023/07/13 04:13:23;;;;;;;3.72;2.80;;;;;;;;;;2097643;28;20477;-62
2023/07/13 04:14:42;;;;;;;4.30;2.90;;;;;;;;;;2099111;28;20028;-62
2023/07/13 04:16:04;;;;;;;5.00;2.78;;;;;;;;;;2097387;28;20516;-61
2023/07/13 04:17:22;;;;;;;3.58;2.75;;;;;;;;;;2093218;28;20902;-61
2023/07/13 04:18:41;;;;;;;7.53;3.10;;;;;;;;;;2093843;28;20021;-61
2023/07/13 04:20:01;;;;;;;4.80;2.50;;;;;;;;;;2097644;28;20024;-61
2023/07/13 04:21:19;;;;;;;5.68;3.17;;;;;;;;;;2094645;28;20028;-61
2023/07/13 04:22:38;;;;;;;4.30;2.67;;;;;;;;;;2094443;28;20025;-61
2023/07/13 04:23:57;;;;;;;3.40;3.10;;;;;;;;;;2097343;28;20409;-62
2023/07/13 04:25:16;;;;;;;5.55;3.10;;;;;;;;;;2087923;28;20116;-60
2023/07/13 04:26:36;;;;;;;3.25;2.60;;;;;;;;;;2093889;28;20024;-61
2023/07/13 04:27:54;;;;;;;6.47;2.97;;;;;;;;;;2097573;28;20020;-61
2023/07/13 04:29:13;;;;;;;6.60;3.10;;;;;;;;;;2096472;28;20448;-61
2023/07/13 04:30:32;;;;;;;3.08;2.40;;;;;;;;;;2097086;28;20481;-61
2023/07/13 04:31:51;;;;;;;4.10;2.70;;;;;;;;;;2084220;28;20557;-63
2023/07/13 04:33:10;;;;;;;5.43;2.70;;;;;;;;;;2093484;28;20037;-62
2023/07/13 04:34:29;;;;;;;4.13;2.63;;;;;;;;;;2096283;28;20223;-61
2023/07/13 04:35:49;;;;;;;3.45;2.45;;;;;;;;;;2095534;28;20025;-61
2023/07/13 04:37:08;;;;;;;4.32;3.03;;;;;;;;;;2096714;28;20477;-61
2023/07/13 04:38:29;;;;;;;3.10;2.80;;;;;;;;;;2089803;28;20021;-61
2023/07/13 04:39:48;;;;;;;2.70;2.50;;;;;;;;;;2093642;28;20032;-61
2023/07/13 04:41:07;;;;;;;6.18;2.83;;;;;;;;;;2097035;28;20032;-61
2023/07/13 04:42:27;;;;;;;5.00;2.70;;;;;;;;;;2087966;28;20028;-62
2023/07/13 04:43:46;;;;;;;3.97;2.70;;;;;;;;;;2095198;28;20028;-61
2023/07/13 04:45:07;;;;;;;3.45;2.55;;;;;;;;;;2097657;28;20048;-61
2023/07/13 04:46:26;;;;;;;3.28;2.70;;;;;;;;;;2097026;28;20044;-61
2023/07/13 04:47:45;;;;;;;4.32;2.47;;;;;;;;;;2096583;28;20028;-61
2023/07/13 04:49:04;;;;;;;4.15;2.90;;;;;;;;;;2093928;28;20036;-61
2023/07/13 04:50:23;;;;;;;3.83;3.13;;;;;;;;;;2095420;28;20151;-61
2023/07/13 04:51:42;;;;;;;4.82;2.60;;;;;;;;;;2094261;28;20028;-62
2023/07/13 04:53:01;;;;;;;5.63;2.70;;;;;;;;;;2091887;28;20052;-62
2023/07/13 04:54:20;;;;;;;7.30;2.63;;;;;;;;;;2095679;28;20042;-63
2023/07/13 04:55:39;;;;;;;6.72;2.42;;;;;;;;;;2095528;28;20028;-62
2023/07/13 04:56:57;;;;;;;8.82;3.47;;;;;;;;;;2095936;28;20042;-62
2023/07/13 04:58:17;;;;;;;10.75;3.28;;;;;;;;;;2095980;28;20028;-62
2023/07/13 04:59:36;;;;;;;5.32;2.55;;;;;;;;;;2097520;28;20029;-62
2023/07/13 05:01:05;;;;;;;5.53;3.10;;;;;;;;;;2096164;28;20048;-61
2023/07/13 05:02:24;;;;;;;5.45;3.15;;;;;;;;;;2096934;28;20033;-61
2023/07/13 05:03:43;;;;;;;21.05;3.40;;;;;;;;;;2096391;28;20036;-61
2023/07/13 05:05:03;;;;;;;4.13;2.75;;;;;;;;;;2094652;28;20028;-61
2023/07/13 05:06:22;;;;;;;3.40;2.78;;;;;;;;;;2094361;28;20389;-61
2023/07/13 05:07:41;;;;;;;6.35;2.60;;;;;;;;;;2095297;28;20036;-61
2023/07/13 05:09:00;;;;;;;6.05;3.03;;;;;;;;;;2094790;28;20029;-60
2023/07/13 05:10:20;;;;;;;6.22;2.67;;;;;;;;;;2092176;28;20036;-60
2023/07/13 05:11:39;;;;;;;4.90;2.58;;;;;;;;;;2097290;28;20116;-61
2023/07/13 05:12:58;;;;;;;7.63;2.67;;;;;;;;;;2093478;28;20028;-60
2023/07/13 05:14:17;;;;;;;6.38;3.08;;;;;;;;;;2096190;28;20016;-60
2023/07/13 05:15:36;;;;;;;9.73;3.08;;;;;;;;;;2096321;28;20028;-60
2023/07/13 05:16:57;;;;;;;6.13;2.40;;;;;;;;;;2095629;28;20052;-61
2023/07/13 05:18:16;;;;;;;5.65;2.85;;;;;;;;;;2095965;28;20016;-61
2023/07/13 05:19:35;;;;;;;7.70;2.85;;;;;;;;;;2093902;28;20064;-61
2023/07/13 05:21:01;;;;;;;4.40;2.50;;;;;;;;;;2093140;28;20048;-60
2023/07/13 05:22:20;;;;;;;4.90;2.45;;;;;;;;;;2096403;28;20036;-60
2023/07/13 05:23:41;;;;;;;6.18;2.22;;;;;;;;;;2097253;28;20423;-59
2023/07/13 05:25:07;;;;;;;2.90;2.05;;;;;;;;;;2096027;28;20549;-59
2023/07/13 05:26:26;;;;;;;5.55;2.28;;;;;;;;;;2093381;28;20107;-61
2023/07/13 05:27:45;;;;;;;5.05;2.53;;;;;;;;;;2094818;28;20115;-60
2023/07/13 05:29:04;;;;;;;4.78;2.00;;;;;;;;;;2095508;28;20024;-61
2023/07/13 05:30:23;;;;;;;3.90;2.60;;;;;;;;;;2093654;28;20024;-60
2023/07/13 05:31:42;;;;;;;2.83;2.40;;;;;;;;;;2094409;28;20029;-60
2023/07/13 05:33:01;;;;;;;5.72;2.67;;;;;;;;;;2094013;28;20492;-60
2023/07/13 05:34:20;;;;;;;3.47;2.15;;;;;;;;;;2094822;28;20569;-60
2023/07/13 05:35:40;;;;;;;5.03;2.08;;;;;;;;;;2094582;28;20021;-61
2023/07/13 05:36:59;;;;;;;2.67;2.10;;;;;;;;;;2090859;28;20032;-60
2023/07/13 05:38:18;;;;;;;3.80;2.30;;;;;;;;;;2094686;28;20029;-61
2023/07/13 05:39:37;;;;;;;3.38;2.30;;;;;;;;;;2096811;28;20498;-67
2023/07/13 05:40:56;;;;;;;5.53;1.92;;;;;;;;;;2096486;28;20032;-67
2023/07/13 05:42:15;;;;;;;5.60;2.17;;;;;;;;;;2094398;28;20127;-68
2023/07/13 05:43:34;;;;;;;6.75;2.40;;;;;;;;;;2091028;28;20048;-67
2023/07/13 05:44:53;;;;;;;4.82;2.40;;;;;;;;;;2095150;28;20040;-68
2023/07/13 05:46:12;;;;;;;5.88;2.50;;;;;;;;;;2094607;28;20571;-71
2023/07/13 05:47:31;;;;;;;3.95;2.00;;;;;;;;;;2096116;28;20032;-66
2023/07/13 05:48:50;;;;;;;2.85;2.00;;;;;;;;;;2094895;28;20448;-68
2023/07/13 05:50:09;;;;;;;4.13;1.92;;;;;;;;;;2091546;28;20111;-68
2023/07/13 05:51:29;;;;;;;6.10;1.70;;;;;;;;;;2096536;28;20111;-68
2023/07/13 05:52:48;;;;;;;2.80;2.03;;;;;;;;;;2093005;28;20119;-67
2023/07/13 05:54:07;;;;;;;3.60;1.90;;;;;;;;;;2094987;28;20024;-65
2023/07/13 05:55:26;;;;;;;4.40;2.10;;;;;;;;;;2093780;28;20468;-64
2023/07/13 05:56:45;;;;;;;2.20;1.90;;;;;;;;;;2093588;28;20067;-68
2023/07/13 05:58:04;;;;;;;3.17;1.90;;;;;;;;;;2096440;28;20032;-67
2023/07/13 05:59:23;;;;;;;6.47;1.80;;;;;;;;;;2094851;28;20036;-64
2023/07/13 06:00:42;;;;;;;5.93;1.65;;;;;;;;;;2094169;28;20058;-68
2023/07/13 06:02:00;;;;;;;4.32;1.92;;;;;;;;;;2094674;28;20330;-66
2023/07/13 06:03:19;;;;;;;4.78;2.05;;;;;;;;;;2089666;28;20028;-66
2023/07/13 06:04:38;;;;;;;2.65;2.17;;;;;;;;;;2094703;28;20032;-67
2023/07/13 06:05:57;;;;;;;2.55;2.00;;;;;;;;;;2097288;28;20036;-68
2023/07/13 06:07:16;;;;;;;2.58;1.80;;;;;;;;;;2088674;28;20037;-68
2023/07/13 06:08:36;;;;;;;3.90;1.75;;;;;;;;;;2094419;28;20037;-69
2023/07/13 06:09:54;;;;;;;2.22;2.00;;;;;;;;;;2097669;28;20029;-67
2023/07/13 06:11:16;;;;;;;3.67;1.50;;;;;;;;;;2098951;28;20036;-68
2023/07/13 06:12:35;;;;;;;2.53;1.73;;;;;;;;;;2097271;28;20623;-68
2023/07/13 06:13:54;;;;;;;4.40;1.67;;;;;;;;;;2095895;28;20215;-64
2023/07/13 06:15:13;;;;;;;3.13;2.17;;;;;;;;;;2095920;28;20100;-68
2023/07/13 06:16:32;;;;;;;6.63;2.17;;;;;;;;;;2097668;28;20032;-68
2023/07/13 06:17:51;;;;;;;6.47;1.95;;;;;;;;;;2095448;28;20020;-69
2023/07/13 06:19:10;;;;;;;3.00;1.55;;;;;;;;;;2096485;28;20048;-68
2023/07/13 06:20:30;;;;;;;5.07;1.70;;;;;;;;;;2095939;28;20036;-64
2023/07/13 06:21:49;;;;;;;6.05;1.70;;;;;;;;;;2093585;28;20036;-68
2023/07/13 06:23:08;;;;;;;5.75;1.80;;;;;;;;;;2095476;28;20033;-69
2023/07/13 06:24:27;;;;;;;3.67;2.05;;;;;;;;;;2099643;28;20055;-69
2023/07/13 06:25:46;;;;;;;5.93;2.22;;;;;;;;;;2095547;28;20044;-67
2023/07/13 06:27:05;;;;;;;3.13;1.67;;;;;;;;;;2099329;28;20033;-68
2023/07/13 06:28:24;;;;;;;3.45;1.77;;;;;;;;;;2096386;28;20040;-68
2023/07/13 06:29:44;;;;;;;2.38;1.73;;;;;;;;;;2096215;28;20032;-69
2023/07/13 06:31:07;;;;;;;4.05;1.85;;;;;;;;;;2097441;28;20024;-68
2023/07/13 06:32:26;;;;;;;7.82;1.58;;;;;;;;;;2098539;28;20037;-68
2023/07/13 06:33:45;;;;;;;6.53;1.80;;;;;;;;;;2099123;28;20036;-68
2023/07/13 06:35:04;;;;;;;4.38;1.58;;;;;;;;;;2094471;28;20064;-68
2023/07/13 06:36:23;;;;;;;3.53;1.80;;;;;;;;;;2096470;28;20020;-68
2023/07/13 06:37:42;;;;;;;2.22;1.73;;;;;;;;;;2094902;28;20381;-69
2023/07/13 06:39:02;;;;;;;7.25;2.00;;;;;;;;;;2090827;28;21037;-68
2023/07/13 06:40:21;;;;;;;4.15;1.63;;;;;;;;;;2094611;28;20491;-68
2023/07/13 06:41:40;;;;;;;3.08;1.35;;;;;;;;;;2095664;28;20020;-66
2023/07/13 06:42:59;;;;;;;3.97;1.75;;;;;;;;;;2095396;28;20017;-67
2023/07/13 06:44:17;;;;;;;4.82;1.73;;;;;;;;;;2095517;28;20025;-68
2023/07/13 06:45:47;;;;;;;4.78;1.60;;;;;;;;;;2084109;28;20037;-68
2023/07/13 06:47:06;;;;;;;2.40;1.60;;;;;;;;;;2094109;28;20111;-69
2023/07/13 06:48:25;;;;;;;4.40;1.48;;;;;;;;;;2095809;28;20024;-68
2023/07/13 06:49:44;;;;;;;3.22;1.23;;;;;;;;;;2092041;28;20028;-68
2023/07/13 06:51:03;;;;;;;6.45;1.92;;;;;;;;;;2093347;28;20041;-72
2023/07/13 06:52:22;;;;;;;6.53;1.70;;;;;;;;;;2097259;28;20037;-69
2023/07/13 06:53:43;;;;;;;3.92;1.50;;;;;;;;;;2097267;28;20032;-68
2023/07/13 06:55:02;;;;;;;4.18;1.60;;;;;;;;;;2099308;28;20028;-68
2023/07/13 06:56:22;;;;;;;7.38;1.73;;;;;;;;;;2098117;28;20453;-67
2023/07/13 06:57:41;;;;;;;4.03;1.85;;;;;;;;;;2098290;28;20025;-68
2023/07/13 06:59:00;;;;;;;5.25;1.55;;;;;;;;;;2098477;28;20021;-69
2023/07/13 07:00:18;;;;;;;1.80;1.23;;;;;;;;;;2097835;28;20025;-67
2023/07/13 07:01:37;;;;;;;4.25;1.92;;;;;;;;;;2098475;28;20036;-67
2023/07/13 07:02:57;;;;;;;5.18;1.77;;;;;;;;;;2097435;28;20054;-68
2023/07/13 07:04:15;;;;;;;3.10;1.63;;;;;;;;;;2098872;28;20446;-68
2023/07/13 07:05:34;;;;;;;5.07;1.40;;;;;;;;;;2098095;28;20036;-68
2023/07/13 07:06:54;;;;;;;7.15;2.00;;;;;;;;;;2098013;28;20032;-68
2023/07/13 07:08:13;;;;;;;3.38;1.70;;;;;;;;;;2098886;28;20033;-69
2023/07/13 07:09:31;;;;;;;3.72;1.77;;;;;;;;;;2098416;28;20028;-69
2023/07/13 07:10:53;;;;;;;2.10;1.55;;;;;;;;;;2098300;28;20115;-67
2023/07/13 07:12:12;;;;;;;2.90;1.40;;;;;;;;;;2095959;28;20103;-68
2023/07/13 07:13:31;;;;;;;3.75;1.50;;;;;;;;;;2098753;28;20040;-68
2023/07/13 07:14:50;;;;;;;3.10;1.50;;;;;;;;;;2098612;28;20024;-69
2023/07/13 07:16:09;;;;;;;2.45;1.73;;;;;;;;;;2098386;28;20480;-68
2023/07/13 07:17:28;;;;;;;3.28;1.63;;;;;;;;;;2097524;28;20053;-68
2023/07/13 07:18:47;;;;;;;3.75;1.70;;;;;;;;;;2097270;28;20390;-68
2023/07/13 07:20:07;;;;;;;2.28;1.40;;;;;;;;;;2097573;28;20024;-69
2023/07/13 07:21:26;;;;;;;6.20;1.70;;;;;;;;;;2100800;28;20032;-68
2023/07/13 07:22:44;;;;;;;4.80;1.88;;;;;;;;;;2099076;28;20024;-67
2023/07/13 07:24:04;;;;;;;3.90;1.95;;;;;;;;;;2098072;28;20029;-68
2023/07/13 07:25:23;;;;;;;2.38;1.58;;;;;;;;;;2090563;28;20124;-69
2023/07/13 07:26:42;;;;;;;6.40;2.10;;;;;;;;;;2096372;28;20032;-68
2023/07/13 07:28:01;;;;;;;5.22;1.65;;;;;;;;;;2098282;28;20032;-68
2023/07/13 07:29:20;;;;;;;7.80;2.17;;;;;;;;;;2098025;28;20405;-68
2023/07/13 07:30:42;;;;;;;6.38;1.63;;;;;;;;;;2099214;28;20029;-68
2023/07/13 07:32:01;;;;;;;3.47;1.42;;;;;;;;;;2099376;28;20028;-65
2023/07/13 07:33:20;;;;;;;8.20;1.65;;;;;;;;;;2099723;28;20033;-67
2023/07/13 07:34:39;;;;;;;5.03;1.50;;;;;;;;;;2098737;28;20056;-68
2023/07/13 07:35:58;;;;;;;7.40;1.90;;;;;;;;;;2098895;28;20016;-68
2023/07/13 07:37:17;;;;;;;2.03;1.33;;;;;;;;;;2099568;28;20033;-69
2023/07/13 07:38:36;;;;;;;4.15;1.35;;;;;;;;;;2097851;28;20488;-68
2023/07/13 07:39:55;;;;;;;5.47;1.60;;;;;;;;;;2099262;28;20028;-66
2023/07/13 07:41:14;;;;;;;4.05;1.80;;;;;;;;;;2099419;28;20040;-67
2023/07/13 07:42:33;;;;;;;7.25;1.50;;;;;;;;;;2099139;28;20068;-68
2023/07/13 07:43:52;;;;;;;4.15;1.80;;;;;;;;;;2090956;28;20074;-68
2023/07/13 07:45:13;;;;;;;3.58;1.52;;;;;;;;;;2095985;28;20039;-67
2023/07/13 07:46:32;;;;;;;3.15;1.38;;;;;;;;;;2098459;28;20028;-65
2023/07/13 07:47:51;;;;;;;3.85;1.48;;;;;;;;;;2097531;28;20029;-64
2023/07/13 07:49:10;;;;;;;3.92;1.23;;;;;;;;;;2098153;28;20549;-68
2023/07/13 07:50:30;;;;;;;3.15;1.48;;;;;;;;;;2098960;28;20127;-68
2023/07/13 07:51:49;;;;;;;3.17;1.58;;;;;;;;;;2098136;28;20021;-66
2023/07/13 07:53:10;;;;;;;3.17;1.27;;;;;;;;;;2088840;28;20028;-67
2023/07/13 07:54:29;;;;;;;2.75;1.10;;;;;;;;;;2093581;28;20033;-68
2023/07/13 07:55:48;;;;;;;6.38;1.30;;;;;;;;;;2098696;28;20226;-68
2023/07/13 07:57:08;;;;;;;3.47;1.23;;;;;;;;;;2099150;28;20409;-67